»·PEaware :: WAT169 KLAS-KABQ

WAT169 :: KLAS-KABQ

FLIGHT INFORMATION

Flight Status: Arrived
Operator: Unknown
More flights by this operator :: More flights under this callsign
Pilot: Marty P. (27464)
Aircraft: BOEING 737-800
(B738)
More flights by this aircraft type
Origin: KLAS McCarran Intl
United States
Destination: KABQ Albuquerque Intl Sunport
United States
More flights between these airports :: More routes between these airports
Route: COWBY8 GUP LOWBO3
File this flight plan on PilotEdge
Remarks:
Altitude:
(Current/Filed)
37,000ft
Speed:
(Current/Filed)
470kts
Departed: 17-May-20 12:55 PM
Arrived: 17-May-20 02:05 PM
Distance/Time
Traveled:
421nm/1:10
Distance/Time
To Go:
Arrived

Flight Plot

Page will automatically refresh every two minutes.


Map Options




Map Legend


Flown Route
Filed Route
Departure Airport
Arrival Airport
Navaid (VOR, NDB)
Fix

Horizontal Profiles

Position Reports

Time Latitude Longitude Heading Altitude Ground
Speed
17-May-20 12:29 36.080313 -115.147275 61 2191ft 0kts
17-May-20 12:30 36.080313 -115.147275 61 2191ft 0kts
17-May-20 12:31 36.080313 -115.147275 61 2191ft 0kts
17-May-20 12:32 36.080313 -115.147275 61 2191ft 0kts
17-May-20 12:33 36.080313 -115.147275 61 2191ft 0kts
17-May-20 12:34 36.080313 -115.147275 61 2191ft 0kts
17-May-20 12:35 36.080313 -115.147275 61 2191ft 0kts
17-May-20 12:36 36.080313 -115.147275 61 2191ft 0kts
17-May-20 12:37 36.080313 -115.147275 61 2191ft 0kts
17-May-20 12:38 36.080313 -115.147275 61 2191ft 0kts
17-May-20 12:39 36.080313 -115.147275 61 2191ft 0kts
17-May-20 12:40 36.080313 -115.147275 61 2191ft 0kts
17-May-20 12:41 36.080313 -115.147276 61 2191ft 0kts
17-May-20 12:42 36.080252 -115.147461 80 2191ft 2kts
17-May-20 12:43 36.080430 -115.148123 140 2191ft 2kts
17-May-20 12:44 36.080589 -115.148244 158 2191ft 0kts
17-May-20 12:45 36.080589 -115.148244 158 2191ft 0kts
17-May-20 12:46 36.079859 -115.147840 157 2191ft 10kts
17-May-20 12:47 36.078417 -115.145681 95 2191ft 12kts
17-May-20 12:48 36.078264 -115.140370 89 2191ft 17kts
17-May-20 12:49 36.078266 -115.135006 90 2191ft 13kts
17-May-20 12:50 36.078264 -115.130980 89 2191ft 12kts
17-May-20 12:51 36.078253 -115.127265 89 2191ft 16kts
17-May-20 12:52 36.077719 -115.121865 129 2191ft 13kts
17-May-20 12:53 36.077041 -115.121299 176 2191ft 10kts
17-May-20 12:54 36.076451 -115.144496 267 2201ft 181kts
17-May-20 12:55 36.077061 -115.210275 260 4230ft 222kts
17-May-20 12:56 36.035921 -115.273202 201 7027ft 247kts
17-May-20 12:57 35.969988 -115.292591 182 10114ft 261kts
17-May-20 12:58 35.892115 -115.266551 148 11400ft 340kts
17-May-20 12:59 35.842438 -115.158654 110 12469ft 388kts
17-May-20 13:00 35.826213 -115.027287 88 15229ft 401kts
17-May-20 13:01 35.838454 -114.888184 86 17417ft 416kts
17-May-20 13:02 35.851507 -114.744130 86 18910ft 431kts
17-May-20 13:03 35.864555 -114.599399 85 19973ft 421kts
17-May-20 13:04 35.877310 -114.455373 85 22078ft 430kts
17-May-20 13:05 35.890231 -114.307859 86 22907ft 435kts
17-May-20 13:06 35.903054 -114.159521 86 22941ft 436kts
17-May-20 13:07 35.915886 -114.004949 89 23571ft 469kts
17-May-20 13:08 35.908350 -113.843954 99 25094ft 475kts
17-May-20 13:09 35.887448 -113.681684 102 26509ft 483kts
17-May-20 13:10 35.862826 -113.517840 103 27779ft 492kts
17-May-20 13:11 35.836649 -113.350934 102 28961ft 500kts
17-May-20 13:12 35.810167 -113.184788 103 30214ft 502kts
17-May-20 13:13 35.783440 -113.019154 103 31716ft 497kts
17-May-20 13:14 35.756585 -112.854444 103 33131ft 493kts
17-May-20 13:15 35.729545 -112.690149 103 34468ft 489kts
17-May-20 13:16 35.702503 -112.527307 103 35653ft 486kts
17-May-20 13:17 35.675312 -112.365010 102 36691ft 485kts
17-May-20 13:18 35.648506 -112.206185 103 37232ft 491kts
17-May-20 13:19 35.620660 -112.042672 103 37230ft 492kts
17-May-20 13:20 35.594836 -111.877891 95 37233ft 493kts
17-May-20 13:21 35.588525 -111.710352 93 37246ft 494kts
17-May-20 13:22 35.583571 -111.542659 92 37265ft 494kts
17-May-20 13:23 35.578652 -111.374200 92 37265ft 494kts
17-May-20 13:24 35.573713 -111.208913 93 37180ft 493kts
17-May-20 13:25 35.568608 -111.045307 93 37111ft 475kts
17-May-20 13:26 35.563429 -110.886559 93 37107ft 449kts
17-May-20 13:27 35.558140 -110.731713 93 37111ft 461kts
17-May-20 13:28 35.552641 -110.575539 93 37109ft 456kts
17-May-20 13:29 35.546923 -110.419269 93 37110ft 459kts
17-May-20 13:30 35.541113 -110.264947 93 37109ft 458kts
17-May-20 13:31 35.535031 -110.108731 94 37121ft 460kts
17-May-20 13:32 35.528690 -109.951854 93 37193ft 460kts
17-May-20 13:33 35.522157 -109.795556 93 37219ft 460kts
17-May-20 13:34 35.515430 -109.639342 93 37219ft 458kts
17-May-20 13:35 35.508482 -109.482816 93 37219ft 459kts
17-May-20 13:36 35.501464 -109.329028 94 37217ft 458kts
17-May-20 13:37 35.494183 -109.172936 94 37219ft 458kts
17-May-20 13:38 35.486693 -109.017248 93 37219ft 459kts
17-May-20 13:39 35.476426 -108.859625 96 37202ft 475kts
17-May-20 13:40 35.479379 -108.695118 87 37197ft 483kts
17-May-20 13:41 35.483659 -108.530960 87 35778ft 475kts
17-May-20 13:42 35.486672 -108.368413 91 32471ft 484kts
17-May-20 13:43 35.477542 -108.209790 94 29028ft 486kts
17-May-20 13:44 35.467218 -108.048662 94 26624ft 460kts
17-May-20 13:46 35.457224 -107.896342 94 24307ft 439kts
17-May-20 13:47 35.447836 -107.754909 94 23079ft 402kts
17-May-20 13:48 35.439316 -107.620094 94 21130ft 391kts
17-May-20 13:49 35.431058 -107.488877 94 19253ft 380kts
17-May-20 13:50 35.417072 -107.362774 111 17440ft 369kts
17-May-20 13:51 35.368291 -107.256510 124 15988ft 337kts
17-May-20 13:52 35.320347 -107.162878 123 14674ft 332kts
17-May-20 13:53 35.278296 -107.063532 110 13094ft 328kts
17-May-20 13:54 35.250367 -106.959610 110 12000ft 306kts
17-May-20 13:55 35.224415 -106.863825 110 10775ft 288kts
17-May-20 13:56 35.200000 -106.774100 110 9545ft 269kts
17-May-20 13:57 35.176025 -106.691012 119 8958ft 243kts
17-May-20 13:58 35.161390 -106.614480 90 8003ft 250kts
17-May-20 13:59 35.163774 -106.532605 90 7531ft 217kts
17-May-20 14:00 35.130015 -106.492648 181 7535ft 188kts
17-May-20 14:01 35.079275 -106.489645 177 6986ft 179kts
17-May-20 14:01 35.041928 -106.501362 263 6959ft 166kts
17-May-20 14:03 35.044028 -106.564358 266 5502ft 156kts
17-May-20 14:03 35.044204 -106.600280 274 5364ft 43kts
17-May-20 14:04 35.045203 -106.602878 299 5364ft 0kts
17-May-20 14:06 35.045793 -106.607596 269 5364ft 25kts
17-May-20 14:06 35.046419 -106.614079 307 5364ft 13kts
17-May-20 14:07 35.046940 -106.614475 336 5364ft 0kts

Navigation Log

Ident Type
Flight plan parsing failed, navigation log unavailable